createdAt,value
2019-05-01T00:01:04.175Z,9.80
2019-05-01T00:03:55.760Z,9.70
2019-05-01T00:06:31.483Z,9.60
2019-05-01T00:09:01.515Z,9.60
2019-05-01T00:11:31.350Z,9.60
2019-05-01T00:14:01.313Z,9.50
2019-05-01T00:16:31.162Z,9.40
2019-05-01T00:19:01.123Z,9.40
2019-05-01T00:21:30.924Z,9.40
2019-05-01T00:24:00.882Z,9.50
2019-05-01T00:26:30.777Z,9.40
2019-05-01T00:29:00.704Z,9.30
2019-05-01T00:31:30.525Z,9.30
2019-05-01T00:34:00.328Z,9.20
2019-05-01T00:36:30.275Z,9.10
2019-05-01T00:39:00.142Z,9.10
2019-05-01T00:41:29.949Z,9.10
2019-05-01T00:43:59.791Z,9.10
2019-05-01T00:46:29.652Z,9.00
2019-05-01T00:48:59.449Z,8.70
2019-05-01T00:51:29.249Z,8.70
2019-05-01T00:53:59.065Z,8.60
2019-05-01T00:56:37.051Z,8.60
2019-05-01T00:59:17.751Z,8.60
2019-05-01T01:02:15.888Z,8.50
2019-05-01T01:04:45.727Z,8.50
2019-05-01T01:07:15.599Z,8.40
2019-05-01T01:09:45.400Z,8.40
2019-05-01T01:12:15.318Z,8.20
2019-05-01T01:14:45.146Z,8.20
2019-05-01T01:17:15.058Z,8.30
2019-05-01T01:19:44.910Z,8.20
2019-05-01T01:22:14.740Z,8.10
2019-05-01T01:24:44.721Z,7.90
2019-05-01T01:27:15.154Z,7.90
2019-05-01T01:29:45.118Z,7.90
2019-05-01T01:32:14.895Z,8.00
2019-05-01T01:34:44.702Z,7.90
2019-05-01T01:37:14.631Z,7.90
2019-05-01T01:39:44.507Z,7.70
2019-05-01T01:42:14.426Z,7.70
2019-05-01T01:44:50.965Z,7.70
2019-05-01T01:47:21.320Z,7.70
2019-05-01T01:49:51.258Z,7.70
2019-05-01T01:52:21.677Z,7.80
2019-05-01T01:54:51.611Z,7.80
2019-05-01T01:57:21.708Z,7.80
2019-05-01T01:59:53.082Z,7.80
2019-05-01T02:02:46.978Z,7.70
2019-05-01T02:05:19.687Z,7.70
2019-05-01T02:07:51.283Z,7.70
2019-05-01T02:20:19.433Z,7.40
2019-05-01T02:22:49.268Z,7.40
2019-05-01T02:25:19.432Z,7.50
2019-05-01T02:28:11.405Z,7.50
2019-05-01T02:30:44.434Z,7.50
2019-05-01T02:33:14.667Z,7.60
2019-05-01T02:35:45.651Z,7.50
2019-05-01T02:38:17.364Z,7.50
2019-05-01T02:40:57.498Z,7.20
2019-05-01T02:43:29.407Z,7.20
2019-05-01T02:46:01.869Z,7.20
2019-05-01T02:48:35.721Z,7.20
2019-05-01T02:51:06.606Z,7.10
2019-05-01T02:53:39.427Z,6.90
2019-05-01T02:56:20.656Z,6.90
2019-05-01T02:58:52.802Z,6.90
2019-05-01T03:01:23.370Z,6.90
2019-05-01T03:03:53.545Z,6.70
2019-05-01T03:06:23.500Z,6.70
2019-05-01T03:08:55.306Z,6.80
2019-05-01T03:11:25.079Z,6.90
2019-05-01T03:13:57.883Z,6.80
2019-05-01T03:16:27.816Z,6.90
2019-05-01T03:19:00.315Z,7.00
2019-05-01T03:21:43.977Z,7.10
2019-05-01T03:24:18.397Z,7.10
2019-05-01T03:32:13.291Z,7.20
2019-05-01T03:34:18.319Z,7.20
2019-05-01T03:36:48.714Z,7.30
2019-05-01T03:39:18.634Z,7.60
2019-05-01T03:41:48.851Z,7.60
2019-05-01T03:44:19.282Z,7.60
2019-05-01T03:46:50.260Z,7.60
2019-05-01T03:49:20.154Z,7.60
2019-05-01T03:51:49.919Z,7.60
2019-05-01T03:54:19.835Z,7.70
2019-05-01T03:56:49.711Z,7.80
2019-05-01T03:59:20.063Z,7.70
2019-05-01T04:02:11.775Z,7.70
2019-05-01T04:04:41.714Z,8.00
2019-05-01T04:07:13.244Z,8.00
2019-05-01T04:09:43.339Z,8.00
2019-05-01T04:12:13.362Z,8.00
2019-05-01T04:14:43.418Z,7.90
2019-05-01T04:17:19.572Z,8.00
2019-05-01T06:05:09.638Z,17.20
2019-05-01T06:07:49.652Z,17.30
2019-05-01T06:13:17.887Z,21.20
2019-05-01T06:16:23.222Z,20.60
2019-05-01T06:19:17.857Z,21.40
2019-05-01T06:22:24.079Z,23.00
2019-05-01T06:24:59.977Z,23.20
2019-05-01T06:27:31.694Z,21.80
2019-05-01T06:30:02.519Z,22.00
2019-05-01T06:32:33.615Z,23.20
2019-05-01T06:35:04.661Z,23.10
2019-05-01T06:38:02.413Z,23.10
2019-05-01T06:40:44.407Z,23.50
2019-05-01T06:43:28.207Z,23.80
2019-05-01T06:46:15.486Z,24.40
2019-05-01T06:48:53.524Z,24.70
2019-05-01T06:51:41.134Z,23.50
2019-05-01T06:54:16.229Z,23.30
2019-05-01T06:56:45.392Z,25.90
2019-05-01T06:59:16.454Z,22.30
2019-05-01T07:01:47.704Z,23.60
2019-05-01T07:04:17.823Z,23.00
2019-05-01T07:06:47.905Z,21.40
2019-05-01T07:09:27.730Z,21.30
2019-05-01T07:11:52.620Z,19.90
2019-05-01T07:14:22.648Z,21.00
2019-05-01T07:22:18.869Z,20.90
2019-05-01T07:25:04.129Z,20.00
2019-05-01T07:27:34.286Z,22.10
2019-05-01T07:30:42.610Z,24.50
2019-05-01T07:33:16.686Z,24.00
2019-05-01T07:35:46.386Z,23.40
2019-05-01T07:38:16.357Z,24.40
2019-05-01T07:40:46.351Z,22.70
2019-05-01T07:43:28.203Z,21.50
2019-05-01T07:48:48.050Z,19.40
2019-05-01T07:51:17.977Z,20.00
2019-05-01T07:53:48.174Z,20.30
2019-05-01T07:58:51.587Z,22.90
2019-05-01T08:03:53.831Z,23.40
2019-05-01T08:06:23.928Z,24.90
2019-05-01T08:08:54.020Z,24.50
2019-05-01T08:11:23.885Z,23.80
2019-05-01T08:14:07.097Z,22.00
2019-05-01T08:16:27.598Z,20.10
2019-05-01T08:24:33.034Z,18.10
2019-05-01T08:27:08.847Z,18.70
2019-05-01T08:30:01.011Z,18.60
2019-05-01T08:32:54.302Z,18.80
2019-05-01T08:38:00.067Z,18.30
2019-05-01T08:40:29.643Z,19.20
2019-05-01T08:42:59.476Z,19.40
2019-05-01T08:45:46.772Z,21.10
2019-05-01T08:51:00.481Z,20.10
2019-05-01T08:53:30.687Z,19.80
2019-05-01T09:01:02.403Z,19.40
2019-05-01T09:03:38.393Z,19.00
2019-05-01T09:08:37.426Z,19.70
2019-05-01T09:11:07.894Z,19.60
2019-05-01T09:13:38.848Z,18.80
2019-05-01T09:16:08.704Z,21.10
2019-05-01T09:18:43.526Z,21.50
2019-05-01T09:26:55.691Z,18.80
2019-05-01T09:42:02.688Z,18.20
2019-05-01T09:44:32.736Z,17.90
2019-05-01T09:47:04.013Z,17.70
2019-05-01T10:28:07.106Z,19.10
2019-05-01T10:30:51.894Z,19.00
2019-05-01T10:33:24.088Z,18.60
2019-05-01T10:36:31.598Z,18.80
2019-05-01T10:39:02.396Z,18.20
2019-05-01T10:41:32.346Z,18.00
2019-05-01T10:44:02.403Z,18.50
2019-05-01T10:46:32.703Z,18.80
2019-05-01T10:49:06.170Z,18.80
2019-05-01T10:51:39.616Z,19.30
2019-05-01T10:54:16.953Z,19.50
2019-05-01T10:56:50.775Z,19.90
2019-05-01T10:59:20.753Z,20.00
2019-05-01T11:01:57.044Z,20.40
2019-05-01T11:04:26.994Z,20.50
2019-05-01T11:06:56.926Z,20.20
2019-05-01T11:09:26.708Z,20.50
2019-05-01T11:11:56.578Z,20.90
2019-05-01T11:14:26.495Z,20.70
2019-05-01T11:16:56.355Z,20.40
2019-05-01T11:19:26.167Z,19.80
2019-05-01T11:21:58.089Z,20.40
2019-05-01T11:24:27.933Z,20.50
2019-05-01T11:26:57.731Z,21.30
2019-05-01T11:29:28.912Z,21.30
2019-05-01T11:32:20.503Z,20.90
2019-05-01T11:35:15.168Z,20.50
2019-05-01T11:38:02.102Z,20.40
2019-05-01T11:40:38.673Z,19.90
2019-05-01T11:43:08.690Z,19.70
2019-05-01T11:45:40.617Z,19.70
2019-05-01T11:48:10.667Z,19.90
2019-05-01T11:50:40.758Z,19.90
2019-05-01T11:53:10.521Z,20.10
2019-05-01T11:55:40.506Z,20.60
2019-05-01T11:58:12.159Z,20.80
2019-05-01T12:00:49.746Z,20.40
2019-05-01T12:03:21.283Z,20.10
2019-05-01T12:05:55.529Z,19.80
2019-05-01T12:08:33.664Z,19.70
2019-05-01T12:11:06.798Z,20.10
2019-05-01T12:13:43.810Z,21.10
2019-05-01T12:16:22.759Z,20.70
2019-05-01T12:18:52.545Z,21.00
2019-05-01T12:21:22.472Z,21.40
2019-05-01T12:23:53.307Z,21.60
2019-05-01T12:26:23.398Z,20.70
2019-05-01T12:28:53.335Z,21.20
2019-05-01T12:31:27.939Z,21.60
2019-05-01T12:34:01.999Z,20.50
2019-05-01T12:36:36.419Z,20.50
2019-05-01T12:39:04.463Z,21.20
2019-05-01T12:41:56.283Z,21.30
2019-05-01T12:44:27.642Z,21.10
2019-05-01T12:47:05.430Z,20.80
2019-05-01T12:49:35.879Z,19.90
2019-05-01T12:52:11.151Z,19.90
2019-05-01T12:54:52.554Z,19.90
2019-05-01T12:57:24.862Z,19.80
2019-05-01T13:00:08.129Z,20.20
2019-05-01T13:02:30.648Z,20.30
2019-05-01T13:05:00.909Z,19.90
2019-05-01T13:07:32.522Z,19.60
2019-05-01T13:10:05.316Z,19.40
2019-05-01T13:12:35.759Z,19.10
2019-05-01T13:15:09.926Z,19.00
2019-05-01T13:17:40.603Z,19.10
2019-05-01T13:20:14.037Z,18.80
2019-05-01T13:22:44.137Z,19.10
2019-05-01T13:25:16.260Z,19.10
2019-05-01T13:28:12.591Z,19.40
2019-05-01T13:31:00.026Z,19.60
2019-05-01T13:33:29.944Z,19.70
2019-05-01T13:36:00.083Z,19.70
2019-05-01T13:38:34.614Z,19.40
2019-05-01T13:41:04.448Z,19.70
2019-05-01T13:43:36.154Z,19.80
2019-05-01T13:46:06.010Z,20.00
2019-05-01T13:48:35.872Z,20.30
2019-05-01T13:51:05.851Z,20.60
2019-05-01T13:53:35.715Z,20.60
2019-05-01T13:56:06.165Z,20.60
2019-05-01T13:58:36.346Z,20.30
2019-05-01T14:01:06.401Z,20.30
2019-05-01T14:03:36.594Z,20.60
2019-05-01T14:06:08.701Z,20.40
2019-05-01T14:08:59.253Z,20.30
2019-05-01T14:11:29.194Z,19.80
2019-05-01T14:13:59.288Z,19.80
2019-05-01T14:16:30.150Z,19.20
2019-05-01T14:18:59.967Z,18.90
2019-05-01T14:21:37.430Z,18.70
2019-05-01T14:24:25.277Z,18.90
2019-05-01T14:26:55.159Z,18.90
2019-05-01T14:29:25.058Z,18.60
2019-05-01T14:31:54.981Z,17.80
2019-05-01T14:34:24.909Z,17.70
2019-05-01T14:36:54.756Z,17.80
2019-05-01T14:39:25.371Z,18.00
2019-05-01T14:41:55.591Z,18.50
2019-05-01T14:44:36.289Z,19.00
2019-05-01T14:46:58.687Z,19.50
2019-05-01T14:49:32.942Z,19.30
2019-05-01T14:52:03.193Z,19.40
2019-05-01T14:54:32.996Z,19.20
2019-05-01T14:57:02.958Z,18.70
2019-05-01T14:59:32.845Z,18.70
2019-05-01T15:07:01.034Z,18.50
2019-05-01T15:09:30.947Z,18.50
2019-05-01T15:12:00.986Z,18.30
2019-05-01T15:14:40.407Z,18.30
2019-05-01T15:17:17.954Z,18.40
2019-05-01T15:20:06.990Z,18.40
2019-05-01T15:22:36.798Z,18.40
2019-05-01T15:25:06.785Z,18.40
2019-05-01T15:27:36.618Z,18.30
2019-05-01T15:30:08.771Z,17.90
2019-05-01T15:32:38.640Z,18.00
2019-05-01T15:35:08.779Z,17.90
2019-05-01T15:37:38.728Z,17.80
2019-05-01T15:40:19.241Z,18.00
2019-05-01T15:42:59.610Z,18.30
2019-05-01T15:45:29.471Z,18.00
2019-05-01T15:47:59.375Z,18.00
2019-05-01T15:50:29.196Z,18.40
2019-05-01T15:52:59.347Z,18.30
2019-05-01T15:55:29.302Z,18.00
2019-05-01T15:57:59.254Z,17.70
2019-05-01T16:00:29.120Z,17.90
2019-05-01T16:05:29.006Z,17.50
2019-05-01T16:08:09.122Z,17.60
2019-05-01T16:10:35.783Z,17.30
2019-05-01T16:13:05.890Z,17.20
2019-05-01T16:15:38.543Z,17.40
2019-05-01T16:18:08.611Z,17.50
2019-05-01T16:20:38.532Z,17.50
2019-05-01T16:23:08.298Z,17.40
2019-05-01T16:25:39.476Z,17.30
2019-05-01T16:28:09.293Z,17.20
2019-05-01T16:30:39.156Z,16.90
2019-05-01T16:33:09.097Z,17.10
2019-05-01T16:35:39.521Z,17.00
2019-05-01T16:38:22.715Z,17.00
2019-05-01T16:41:07.992Z,17.40
2019-05-01T16:43:37.894Z,17.10
2019-05-01T16:46:08.783Z,16.90
2019-05-01T16:48:38.646Z,16.90
2019-05-01T16:51:08.606Z,17.10
2019-05-01T16:53:38.530Z,16.80
2019-05-01T16:56:08.423Z,16.90
2019-05-01T16:58:39.258Z,17.10
2019-05-01T17:01:28.085Z,16.80
2019-05-01T17:04:19.989Z,16.90
2019-05-01T17:07:14.623Z,16.90
2019-05-01T17:09:58.451Z,16.70
2019-05-01T17:12:34.600Z,16.80
2019-05-01T17:15:04.439Z,16.80
2019-05-01T17:17:34.480Z,16.90
2019-05-01T17:20:04.630Z,16.80
2019-05-01T17:22:34.434Z,16.80
2019-05-01T17:25:05.063Z,16.90
2019-05-01T17:27:35.487Z,16.80
2019-05-01T17:30:08.020Z,16.80
2019-05-01T17:32:39.790Z,16.90
2019-05-01T17:35:11.151Z,16.80
2019-05-01T17:37:42.217Z,16.80
2019-05-01T17:40:12.690Z,16.70
2019-05-01T17:42:42.933Z,16.70
2019-05-01T17:45:13.066Z,16.70
2019-05-01T17:47:43.334Z,16.60
2019-05-01T17:50:16.414Z,16.40
2019-05-01T17:52:48.852Z,16.40
2019-05-01T17:55:23.700Z,16.30
2019-05-01T17:57:53.631Z,16.20
2019-05-01T18:00:51.652Z,16.10
2019-05-01T18:03:44.969Z,16.20
2019-05-01T18:06:33.721Z,16.00
2019-05-01T18:09:08.019Z,16.00
2019-05-01T18:11:39.521Z,16.00
2019-05-01T18:14:09.515Z,16.00
2019-05-01T18:16:39.582Z,15.90
2019-05-01T18:19:11.189Z,15.80
2019-05-01T18:21:46.794Z,15.70
2019-05-01T18:24:53.874Z,15.60
2019-05-01T18:27:40.118Z,15.80
2019-05-01T18:30:15.906Z,15.40
2019-05-01T18:32:47.413Z,15.20
2019-05-01T18:35:16.788Z,15.10
2019-05-01T18:38:10.934Z,15.00
2019-05-01T18:40:42.275Z,14.90
2019-05-01T18:43:12.186Z,14.90
2019-05-01T18:45:55.920Z,14.80
2019-05-01T18:48:26.257Z,14.80
2019-05-01T18:50:56.564Z,14.80
2019-05-01T18:53:26.600Z,14.80
2019-05-01T18:56:01.210Z,15.00
2019-05-01T18:58:28.287Z,15.00
2019-05-01T19:00:58.605Z,14.90
2019-05-01T19:03:29.968Z,15.00
2019-05-01T19:06:00.465Z,15.00
2019-05-01T19:08:30.347Z,15.00
2019-05-01T19:11:11.715Z,14.90
2019-05-01T19:13:31.988Z,14.90
2019-05-01T19:16:03.393Z,15.00
2019-05-01T19:18:33.786Z,15.00
2019-05-01T19:21:04.103Z,15.00
2019-05-01T19:23:34.498Z,15.00
2019-05-01T19:26:07.678Z,15.00
2019-05-01T19:28:37.523Z,14.90
2019-05-01T19:31:07.418Z,14.90
2019-05-01T19:33:41.687Z,14.80
2019-05-01T19:36:10.330Z,14.60
2019-05-01T19:38:40.440Z,14.60
2019-05-01T19:41:14.073Z,14.50
2019-05-01T19:43:42.154Z,14.60
2019-05-01T19:46:14.257Z,14.60
2019-05-01T19:48:56.816Z,14.60
2019-05-01T19:51:26.719Z,14.50
2019-05-01T19:53:57.389Z,14.60
2019-05-01T19:56:27.890Z,14.40
2019-05-01T19:59:00.240Z,14.40
2019-05-01T20:01:30.275Z,14.30
2019-05-01T20:04:00.250Z,14.20
2019-05-01T20:06:30.310Z,14.10
2019-05-01T20:09:00.244Z,14.10
2019-05-01T20:11:30.155Z,14.10
2019-05-01T20:14:01.479Z,14.00
